Port O' Connor, Texas
Current Conditions -  °F | °C
As of 6:53 AM on Saturday 25 Oct 2014 (Local Time) from KRKP Reporting Station
Clear Clear  
Wind Chill: 65°   Ceiling: Unl
Heat Index: 65°   Visibility: 8mi
Dew Point: 63°   Wind: 5mph
Humidity: 93%   Direction: 310°NW
Pressure: 30.13"   Gusts: NA
Location:  28.2231°N, 96.6507°W
Report Text: KRKP 251153Z AUTO 31004KT 8SM CLR 18/17 A3013 RMK AO2 SLP203 T01830172 10217 20167 53003
Loading
Personal Weather Stations






























Interactive Weather Map
Tropical Storm Tracking
New forecast layout! Learn more

10-Day Weather Forecast

Advertisements
Track Severe Weather on mobile